Westrac — WTH4325 — position and weather

sailwx.info

Track history (hours):
 
Tides and Currents Weather Stations Pressure Air Temp Water Temp Dewpoint Dewpoint Depression Visibility Wind Speed Wind Dir Waves Ship Positions

Westrac

Owner: WESTERN TOWBOAT CO, SEATTLE, WA. More information available from US FCC via Universal Licensing System and Coast Guard Vessel Documentation Center.

Last reported at 2016-Jun-25 23:33 UTC. Time now 2016-Jun-26 06:31 UTC.
Position N 47°34' W 122°21'.

Length 23 m; draft 5 m.

Type: Tug. MMSI: 366993010.

Date/timePositionNaut miles runAvg speedWind from/ knotsBaromVisibWave heightAir tempDewpointWater temp
2016-Jun-25 23:33N 47°34' W 122°21'0 0.0
2016-Jun-25 03:10N 47°34' W 122°21'0 0.6
2016-Jun-25 02:33N 47°34' W 122°21'1 1.1
2016-Jun-25 01:33N 47°33' W 122°20'5 5.2
2016-Jun-25 00:33N 47°38' W 122°23'0 0.2
2016-Jun-24 23:33N 47°38' W 122°23'0 0.0
2016-Jun-24 22:33N 47°38' W 122°23'5 5.4
2016-Jun-24 21:33N 47°33' W 122°20'4 3.9
2016-Jun-24 20:33N 47°36' W 122°22'2 0.1
2016-Jun-23 20:17N 47°34' W 122°21'1 2.0
2016-Jun-23 19:33N 47°33' W 122°20'3 2.8
2016-Jun-23 18:33N 47°35' W 122°21'1 0.9
2016-Jun-23 17:33N 47°35' W 122°22'1 1.1
2016-Jun-23 16:33N 47°35' W 122°22'0 0.0
2016-Jun-23 15:33N 47°35' W 122°22'3 2.7
2016-Jun-23 14:33N 47°33' W 122°20'1 1.0
2016-Jun-23 13:33N 47°34' W 122°21'1 0.1
2016-Jun-23 04:33N 47°35' W 122°21'0 0.4
2016-Jun-23 03:34N 47°36' W 122°22'0 0.3
2016-Jun-23 02:33N 47°35' W 122°21'2 2.2
2016-Jun-23 01:33N 47°33' W 122°21'3 2.7
2016-Jun-23 00:33N 47°36' W 122°22'1 0.7
2016-Jun-22 23:34N 47°35' W 122°21'2 1.8
2016-Jun-22 22:34N 47°34' W 122°21'1 0.6
2016-Jun-22 21:33N 47°34' W 122°21'0 0.0
2016-Jun-22 20:33N 47°34' W 122°21'0 0.0
2016-Jun-22 19:33N 47°34' W 122°21'0 0.0
2016-Jun-22 18:33N 47°34' W 122°21'1 1.3
2016-Jun-22 17:33N 47°35' W 122°21'3 2.7
2016-Jun-22 16:33N 47°33' W 122°20'1 0.7
2016-Jun-22 15:33N 47°33' W 122°21'2 2.2
2016-Jun-22 14:34N 47°35' W 122°22'2 0.2
2016-Jun-21 22:34N 47°33' W 122°21'1 1.0
2016-Jun-21 21:33N 47°34' W 122°21'0 0.0
2016-Jun-21 20:34N 47°34' W 122°21'0 0.3
2016-Jun-21 19:34N 47°34' W 122°21'2 1.8
2016-Jun-21 18:34N 47°35' W 122°22'2 1.7
2016-Jun-21 17:33N 47°34' W 122°21'1 1.0
2016-Jun-21 16:34N 47°33' W 122°20'0 0.1
2016-Jun-21 15:34N 47°33' W 122°21'0 0.1
2016-Jun-21 14:33N 47°33' W 122°21'0 0.1
2016-Jun-21 13:34N 47°33' W 122°21'0 0.0
2016-Jun-21 05:33N 47°33' W 122°21'0 0.2
2016-Jun-21 04:33N 47°33' W 122°21'1 0.1
2016-Jun-20 22:33N 47°34' W 122°21'1 1.5
2016-Jun-20 21:33N 47°35' W 122°22'2 2.4
2016-Jun-20 20:33N 47°33' W 122°21'0 0.0
2016-Jun-20 19:33N 47°33' W 122°21'0 0.0
2016-Jun-20 18:33N 47°33' W 122°21'0 0.0
2016-Jun-20 17:33N 47°33' W 122°21'0 0.0
2016-Jun-20 16:33N 47°33' W 122°21'1 1.4
2016-Jun-20 15:33N 47°34' W 122°21'1 1.2
2016-Jun-20 14:34N 47°35' W 122°22'3 2.6
2016-Jun-20 13:33N 47°33' W 122°21'1 0.1
2016-Jun-20 01:11N 47°34' W 122°21'1 1.1
2016-Jun-20 00:34N 47°33' W 122°21'2 2.5
2016-Jun-19 23:34N 47°36' W 122°22'3 2.5
2016-Jun-19 22:32N 47°33' W 122°21'3 2.7
2016-Jun-19 21:33N 47°36' W 122°23'0 0.3
2016-Jun-19 20:33N 47°35' W 122°22'0 0.1
2016-Jun-19 12:33N 47°35' W 122°22'0 0.2
2016-Jun-19 11:33N 47°35' W 122°22'0 0.1
2016-Jun-19 10:33N 47°35' W 122°22'1 0.1
2016-Jun-19 00:25N 47°34' W 122°21'0 0.2
2016-Jun-18 23:33N 47°34' W 122°21'1 1.3
2016-Jun-18 22:33N 47°35' W 122°21'3 3.1
2016-Jun-18 21:33N 47°32' W 122°20'4 3.9
2016-Jun-18 20:33N 47°36' W 122°23'3 2.6
2016-Jun-18 19:33N 47°34' W 122°21'0 0.2
2016-Jun-18 18:33N 47°33' W 122°21'1 0.7
2016-Jun-18 17:34N 47°34' W 122°21'1 0.1
2016-Jun-18 01:33N 47°33' W 122°21'1 0.9
2016-Jun-18 00:33N 47°34' W 122°21'1 0.8
2016-Jun-17 23:33N 47°33' W 122°21'1 0.9
2016-Jun-17 22:34N 47°34' W 122°21'0 0.1
2016-Jun-17 21:33N 47°34' W 122°21'0 0.0
2016-Jun-17 20:33N 47°34' W 122°21'1 0.5
2016-Jun-17 19:33N 47°34' W 122°21'7 6.9
2016-Jun-17 18:33N 47°41' W 122°25'6 6.4
2016-Jun-17 17:33N 47°35' W 122°22'1 0.7
2016-Jun-17 16:33N 47°35' W 122°22'2 0.1
2016-Jun-17 04:06N 47°34' W 122°21'1 2.6
2016-Jun-17 03:33N 47°35' W 122°22'1 1.4
2016-Jun-17 02:33N 47°34' W 122°21'0 0.0
2016-Jun-17 01:33N 47°34' W 122°21'1 1.3
2016-Jun-17 00:33N 47°33' W 122°20'1 1.0
2016-Jun-16 23:33N 47°34' W 122°21'2 1.7
2016-Jun-16 22:33N 47°35' W 122°22'0 0.5
2016-Jun-16 21:33N 47°35' W 122°22'1 0.7
2016-Jun-16 20:33N 47°35' W 122°22'1 0.8
2016-Jun-16 19:33N 47°34' W 122°21'0 0.0
2016-Jun-16 03:06N 47°34' W 122°21'1 1.8
2016-Jun-16 02:33N 47°33' W 122°20'0 0.2
2016-Jun-16 01:33N 47°33' W 122°21'2 2.0
2016-Jun-16 00:33N 47°35' W 122°22'2 2.0
2016-Jun-15 23:33N 47°33' W 122°21'  
Track history (hours):
 
Tides and Currents Weather Stations Pressure Air Temp Water Temp Dewpoint Dewpoint Depression Visibility Wind Speed Wind Dir Waves Ship Positions

Westrac

Owner: WESTERN TOWBOAT CO, SEATTLE, WA. More information available from US FCC via Universal Licensing System and Coast Guard Vessel Documentation Center.

Last reported at 2016-Jun-25 23:33 UTC. Time now 2016-Jun-26 06:31 UTC.
Position N 47°34' W 122°21'.

Length 23 m; draft 5 m.

Type: Tug. MMSI: 366993010.

Date/timePositionNaut miles runAvg speedWind from/ knotsBaromVisibWave heightAir tempDewpointWater temp
2016-Jun-25 23:33N 47°34' W 122°21'0 0.0
2016-Jun-25 03:10N 47°34' W 122°21'0 0.6
2016-Jun-25 02:33N 47°34' W 122°21'1 1.1
2016-Jun-25 01:33N 47°33' W 122°20'5 5.2
2016-Jun-25 00:33N 47°38' W 122°23'0 0.2
2016-Jun-24 23:33N 47°38' W 122°23'0 0.0
2016-Jun-24 22:33N 47°38' W 122°23'5 5.4
2016-Jun-24 21:33N 47°33' W 122°20'4 3.9
2016-Jun-24 20:33N 47°36' W 122°22'2 0.1
2016-Jun-23 20:17N 47°34' W 122°21'1 2.0
2016-Jun-23 19:33N 47°33' W 122°20'3 2.8
2016-Jun-23 18:33N 47°35' W 122°21'1 0.9
2016-Jun-23 17:33N 47°35' W 122°22'1 1.1
2016-Jun-23 16:33N 47°35' W 122°22'0 0.0
2016-Jun-23 15:33N 47°35' W 122°22'3 2.7
2016-Jun-23 14:33N 47°33' W 122°20'1 1.0
2016-Jun-23 13:33N 47°34' W 122°21'1 0.1
2016-Jun-23 04:33N 47°35' W 122°21'0 0.4
2016-Jun-23 03:34N 47°36' W 122°22'0 0.3
2016-Jun-23 02:33N 47°35' W 122°21'2 2.2
2016-Jun-23 01:33N 47°33' W 122°21'3 2.7
2016-Jun-23 00:33N 47°36' W 122°22'1 0.7
2016-Jun-22 23:34N 47°35' W 122°21'2 1.8
2016-Jun-22 22:34N 47°34' W 122°21'1 0.6
2016-Jun-22 21:33N 47°34' W 122°21'0 0.0
2016-Jun-22 20:33N 47°34' W 122°21'0 0.0
2016-Jun-22 19:33N 47°34' W 122°21'0 0.0
2016-Jun-22 18:33N 47°34' W 122°21'1 1.3
2016-Jun-22 17:33N 47°35' W 122°21'3 2.7
2016-Jun-22 16:33N 47°33' W 122°20'1 0.7
2016-Jun-22 15:33N 47°33' W 122°21'2 2.2
2016-Jun-22 14:34N 47°35' W 122°22'2 0.2
2016-Jun-21 22:34N 47°33' W 122°21'1 1.0
2016-Jun-21 21:33N 47°34' W 122°21'0 0.0
2016-Jun-21 20:34N 47°34' W 122°21'0 0.3
2016-Jun-21 19:34N 47°34' W 122°21'2 1.8
2016-Jun-21 18:34N 47°35' W 122°22'2 1.7
2016-Jun-21 17:33N 47°34' W 122°21'1 1.0
2016-Jun-21 16:34N 47°33' W 122°20'0 0.1
2016-Jun-21 15:34N 47°33' W 122°21'0 0.1
2016-Jun-21 14:33N 47°33' W 122°21'0 0.1
2016-Jun-21 13:34N 47°33' W 122°21'0 0.0
2016-Jun-21 05:33N 47°33' W 122°21'0 0.2
2016-Jun-21 04:33N 47°33' W 122°21'1 0.1
2016-Jun-20 22:33N 47°34' W 122°21'1 1.5
2016-Jun-20 21:33N 47°35' W 122°22'2 2.4
2016-Jun-20 20:33N 47°33' W 122°21'0 0.0
2016-Jun-20 19:33N 47°33' W 122°21'0 0.0
2016-Jun-20 18:33N 47°33' W 122°21'0 0.0
2016-Jun-20 17:33N 47°33' W 122°21'0 0.0
2016-Jun-20 16:33N 47°33' W 122°21'1 1.4
2016-Jun-20 15:33N 47°34' W 122°21'1 1.2
2016-Jun-20 14:34N 47°35' W 122°22'3 2.6
2016-Jun-20 13:33N 47°33' W 122°21'1 0.1
2016-Jun-20 01:11N 47°34' W 122°21'1 1.1
2016-Jun-20 00:34N 47°33' W 122°21'2 2.5
2016-Jun-19 23:34N 47°36' W 122°22'3 2.5
2016-Jun-19 22:32N 47°33' W 122°21'3 2.7
2016-Jun-19 21:33N 47°36' W 122°23'0 0.3
2016-Jun-19 20:33N 47°35' W 122°22'0 0.1
2016-Jun-19 12:33N 47°35' W 122°22'0 0.2
2016-Jun-19 11:33N 47°35' W 122°22'0 0.1
2016-Jun-19 10:33N 47°35' W 122°22'1 0.1
2016-Jun-19 00:25N 47°34' W 122°21'0 0.2
2016-Jun-18 23:33N 47°34' W 122°21'1 1.3
2016-Jun-18 22:33N 47°35' W 122°21'3 3.1
2016-Jun-18 21:33N 47°32' W 122°20'4 3.9
2016-Jun-18 20:33N 47°36' W 122°23'3 2.6
2016-Jun-18 19:33N 47°34' W 122°21'0 0.2
2016-Jun-18 18:33N 47°33' W 122°21'1 0.7
2016-Jun-18 17:34N 47°34' W 122°21'1 0.1
2016-Jun-18 01:33N 47°33' W 122°21'1 0.9
2016-Jun-18 00:33N 47°34' W 122°21'1 0.8
2016-Jun-17 23:33N 47°33' W 122°21'1 0.9
2016-Jun-17 22:34N 47°34' W 122°21'0 0.1
2016-Jun-17 21:33N 47°34' W 122°21'0 0.0
2016-Jun-17 20:33N 47°34' W 122°21'1 0.5
2016-Jun-17 19:33N 47°34' W 122°21'7 6.9
2016-Jun-17 18:33N 47°41' W 122°25'6 6.4
2016-Jun-17 17:33N 47°35' W 122°22'1 0.7
2016-Jun-17 16:33N 47°35' W 122°22'2 0.1
2016-Jun-17 04:06N 47°34' W 122°21'1 2.6
2016-Jun-17 03:33N 47°35' W 122°22'1 1.4
2016-Jun-17 02:33N 47°34' W 122°21'0 0.0
2016-Jun-17 01:33N 47°34' W 122°21'1 1.3
2016-Jun-17 00:33N 47°33' W 122°20'1 1.0
2016-Jun-16 23:33N 47°34' W 122°21'2 1.7
2016-Jun-16 22:33N 47°35' W 122°22'0 0.5
2016-Jun-16 21:33N 47°35' W 122°22'1 0.7
2016-Jun-16 20:33N 47°35' W 122°22'1 0.8
2016-Jun-16 19:33N 47°34' W 122°21'0 0.0
2016-Jun-16 03:06N 47°34' W 122°21'1 1.8
2016-Jun-16 02:33N 47°33' W 122°20'0 0.2
2016-Jun-16 01:33N 47°33' W 122°21'2 2.0
2016-Jun-16 00:33N 47°35' W 122°22'2 2.0
2016-Jun-15 23:33N 47°33' W 122°21'  

Dump ship's entire track history